createdAt,value
2023-04-16T00:01:08.104Z,101127.94
2023-04-16T00:03:35.976Z,101124.22
2023-04-16T00:06:04.058Z,101131.91
2023-04-16T00:08:31.902Z,101138.72
2023-04-16T00:10:59.650Z,101125.63
2023-04-16T00:13:27.865Z,101123.38
2023-04-16T00:15:57.087Z,101120.50
2023-04-16T00:18:24.929Z,101122.03
2023-04-16T00:20:53.522Z,101124.56
2023-04-16T00:23:21.684Z,101121.81
2023-04-16T00:25:49.438Z,101117.84
2023-04-16T00:28:17.146Z,101123.84
2023-04-16T00:30:45.203Z,101129.00
2023-04-16T00:33:14.234Z,101132.00
2023-04-16T00:35:41.988Z,101126.97
2023-04-16T00:38:09.745Z,101130.31
2023-04-16T00:40:37.408Z,101131.63
2023-04-16T00:43:05.075Z,101136.06
2023-04-16T00:45:33.147Z,101133.91
2023-04-16T00:48:02.181Z,101138.69
2023-04-16T00:50:31.474Z,101137.00
2023-04-16T00:52:59.301Z,101137.34
2023-04-16T00:55:27.168Z,101132.44
2023-04-16T00:57:54.931Z,101136.50
2023-04-16T01:00:22.831Z,101142.63
2023-04-16T01:02:50.688Z,101140.81
2023-04-16T01:05:20.448Z,101134.16
2023-04-16T01:07:49.635Z,101135.59
2023-04-16T01:10:17.368Z,101133.31
2023-04-16T01:12:45.565Z,101135.59
2023-04-16T01:15:13.342Z,101133.91
2023-04-16T01:17:42.321Z,101137.75
2023-04-16T01:20:10.745Z,101137.84
2023-04-16T01:22:39.833Z,101139.44
2023-04-16T01:25:07.897Z,101137.75
2023-04-16T01:27:37.487Z,101145.75
2023-04-16T01:30:06.798Z,101146.81
2023-04-16T01:32:50.825Z,101148.91
2023-04-16T01:35:19.175Z,101151.19
2023-04-16T01:37:48.448Z,101151.44
2023-04-16T01:40:16.253Z,101147.22
2023-04-16T01:42:44.140Z,101156.84
2023-04-16T01:45:12.433Z,101152.19
2023-04-16T01:47:40.415Z,101143.00
2023-04-16T01:50:09.142Z,101148.91
2023-04-16T01:52:37.072Z,101144.47
2023-04-16T01:55:07.181Z,101154.81
2023-04-16T01:57:34.914Z,101154.19
2023-04-16T02:00:04.663Z,101154.19
2023-04-16T02:02:34.683Z,101157.16
2023-04-16T02:05:03.512Z,101153.69
2023-04-16T02:07:32.608Z,101160.66
2023-04-16T02:10:00.584Z,101157.38
2023-04-16T02:12:30.957Z,101157.59
2023-04-16T02:14:58.731Z,101148.50
2023-04-16T02:17:28.785Z,101152.09
2023-04-16T02:20:10.886Z,101164.34
2023-04-16T02:22:52.261Z,101160.97
2023-04-16T02:25:23.118Z,101160.97
2023-04-16T02:27:53.182Z,101162.88
2023-04-16T02:30:38.683Z,101169.25
2023-04-16T02:33:08.464Z,101157.84
2023-04-16T02:35:40.101Z,101156.41
2023-04-16T02:38:09.021Z,101154.97
2023-04-16T02:40:37.322Z,101147.06
2023-04-16T02:43:06.664Z,101151.75
2023-04-16T02:45:34.618Z,101153.31
2023-04-16T02:48:02.539Z,101153.66
2023-04-16T02:50:30.455Z,101152.06
2023-04-16T02:52:58.221Z,101150.91
2023-04-16T02:55:25.990Z,101158.69
2023-04-16T02:57:53.870Z,101153.16
2023-04-16T03:00:23.261Z,101155.59
2023-04-16T03:02:51.303Z,101154.97
2023-04-16T03:05:19.459Z,101154.00
2023-04-16T03:07:47.746Z,101160.25
2023-04-16T03:10:16.703Z,101160.25
2023-04-16T03:12:44.474Z,101156.44
2023-04-16T03:15:12.552Z,101160.13
2023-04-16T03:17:41.766Z,101162.88
2023-04-16T03:20:11.238Z,101168.00
2023-04-16T03:22:39.586Z,101161.44
2023-04-16T03:25:08.155Z,101166.50
2023-04-16T03:27:36.268Z,101157.03
2023-04-16T03:30:04.813Z,101166.72
2023-04-16T03:32:35.113Z,101171.28
2023-04-16T03:35:06.921Z,101169.25
2023-04-16T03:37:35.097Z,101174.06
2023-04-16T03:40:03.629Z,101173.69
2023-04-16T03:42:32.238Z,101175.13
2023-04-16T03:45:00.703Z,101175.97
2023-04-16T03:47:28.800Z,101178.28
2023-04-16T03:50:00.448Z,101177.44
2023-04-16T03:52:30.532Z,101176.72
2023-04-16T03:54:58.256Z,101176.81
2023-04-16T03:57:28.602Z,101177.91
2023-04-16T04:00:01.841Z,101178.72
2023-04-16T04:02:42.144Z,101175.97
2023-04-16T04:05:17.691Z,101181.25
2023-04-16T04:07:48.613Z,101174.91
2023-04-16T04:10:16.685Z,101177.44
2023-04-16T04:12:44.458Z,101176.81
2023-04-16T04:15:13.337Z,101180.91
2023-04-16T04:17:43.366Z,101175.88
2023-04-16T04:20:12.522Z,101180.06
2023-04-16T04:22:42.027Z,101177.44
2023-04-16T04:25:11.709Z,101180.91
2023-04-16T04:27:39.475Z,101184.72
2023-04-16T04:30:08.432Z,101183.78
2023-04-16T04:32:36.627Z,101190.53
2023-04-16T04:35:04.783Z,101195.59
2023-04-16T04:37:32.472Z,101189.34
2023-04-16T04:40:02.983Z,101196.06
2023-04-16T04:42:32.144Z,101194.28
2023-04-16T04:44:59.853Z,101203.03
2023-04-16T04:47:30.308Z,101202.34
2023-04-16T04:49:58.232Z,101197.06
2023-04-16T04:52:26.436Z,101201.59
2023-04-16T04:54:54.216Z,101213.72
2023-04-16T04:57:21.984Z,101199.91
2023-04-16T04:59:53.921Z,101216.22
2023-04-16T05:02:22.409Z,101216.22
2023-04-16T05:04:50.369Z,101213.72
2023-04-16T05:07:18.114Z,101213.16
2023-04-16T05:09:45.845Z,101217.47
2023-04-16T05:12:13.632Z,101210.50
2023-04-16T05:14:41.399Z,101224.66
2023-04-16T05:17:10.896Z,101217.47
2023-04-16T05:19:38.632Z,101223.50
2023-04-16T05:22:06.385Z,101222.31
2023-04-16T05:24:34.223Z,101228.28
2023-04-16T05:27:01.916Z,101229.25
2023-04-16T05:29:29.925Z,101231.88
2023-04-16T05:31:57.915Z,101229.84
2023-04-16T05:34:27.146Z,101233.56
2023-04-16T05:36:54.893Z,101239.34
2023-04-16T05:39:22.586Z,101238.75
2023-04-16T05:41:50.308Z,101242.22
2023-04-16T05:44:18.061Z,101236.38
2023-04-16T05:46:45.781Z,101237.91
2023-04-16T05:49:13.509Z,101243.91
2023-04-16T05:51:42.655Z,101242.13
2023-04-16T05:54:10.409Z,101244.03
2023-04-16T05:56:38.352Z,101244.50
2023-04-16T05:59:06.108Z,101247.25
2023-04-16T06:01:34.462Z,101254.22
2023-04-16T06:04:02.429Z,101243.44
2023-04-16T06:06:30.341Z,101246.31
2023-04-16T06:08:59.419Z,101255.66
2023-04-16T06:11:27.563Z,101255.53
2023-04-16T06:13:55.345Z,101258.19
2023-04-16T06:16:23.188Z,101264.78
2023-04-16T06:18:51.042Z,101269.31
2023-04-16T06:21:18.929Z,101265.00
2023-04-16T06:23:46.818Z,101265.63
2023-04-16T06:26:16.083Z,101270.53
2023-04-16T06:28:43.970Z,101271.50
2023-04-16T06:31:11.925Z,101270.69
2023-04-16T06:33:39.698Z,101264.81
2023-04-16T06:36:07.967Z,101278.88
2023-04-16T06:38:35.748Z,101272.22
2023-04-16T06:41:03.623Z,101277.06
2023-04-16T06:43:33.562Z,101279.50
2023-04-16T06:46:01.662Z,101276.75
2023-04-16T06:48:29.939Z,101286.34
2023-04-16T06:50:58.216Z,101287.91
2023-04-16T06:53:26.044Z,101290.44
2023-04-16T06:55:53.923Z,101295.81
2023-04-16T06:58:22.403Z,101299.94
2023-04-16T07:00:51.596Z,101299.94
2023-04-16T07:03:19.539Z,101300.16
2023-04-16T07:05:47.483Z,101299.19
2023-04-16T07:08:15.479Z,101303.75
2023-04-16T07:10:43.288Z,101299.41
2023-04-16T07:13:11.291Z,101301.69
2023-04-16T07:15:39.035Z,101304.22
2023-04-16T07:18:08.243Z,101312.88
2023-04-16T07:20:36.160Z,101318.41
2023-04-16T07:23:03.991Z,101303.75
2023-04-16T07:25:31.797Z,101303.53
2023-04-16T07:27:59.666Z,101311.13
2023-04-16T07:30:32.652Z,101313.66
2023-04-16T07:33:00.775Z,101302.91
2023-04-16T07:35:30.173Z,101296.34
2023-04-16T07:37:57.924Z,101305.00
2023-04-16T07:40:26.296Z,101315.13
2023-04-16T07:42:54.244Z,101303.00
2023-04-16T07:45:22.015Z,101312.03
2023-04-16T07:47:49.799Z,101310.84
2023-04-16T07:50:19.440Z,101312.38
2023-04-16T07:52:48.859Z,101311.75
2023-04-16T07:55:16.618Z,101313.63
2023-04-16T07:57:44.383Z,101322.28
2023-04-16T08:00:13.085Z,101321.25
2023-04-16T08:02:41.272Z,101330.78
2023-04-16T08:05:09.432Z,101329.69
2023-04-16T08:07:37.526Z,101328.25
2023-04-16T08:10:07.605Z,101335.97
2023-04-16T08:12:35.892Z,101338.59
2023-04-16T08:15:03.761Z,101340.53
2023-04-16T08:17:31.465Z,101346.31
2023-04-16T08:19:59.235Z,101342.94
2023-04-16T08:22:27.435Z,101349.41
2023-04-16T08:24:58.275Z,101333.31
2023-04-16T08:27:27.445Z,101356.91
2023-04-16T08:29:55.199Z,101360.28
2023-04-16T08:32:23.103Z,101360.00
2023-04-16T08:34:51.222Z,101357.81
2023-04-16T08:37:18.966Z,101361.72
2023-04-16T08:39:46.693Z,101357.66
2023-04-16T08:42:23.029Z,101363.31
2023-04-16T08:45:01.102Z,101362.59
2023-04-16T08:47:35.254Z,101366.00
2023-04-16T08:50:05.046Z,101360.94
2023-04-16T08:52:38.547Z,101369.25
2023-04-16T08:55:13.444Z,101363.59
2023-04-16T08:57:56.640Z,101368.19
2023-04-16T09:00:26.448Z,101366.59
2023-04-16T09:02:54.951Z,101371.19
2023-04-16T09:05:25.594Z,101373.34
2023-04-16T09:07:54.160Z,101379.09
2023-04-16T09:10:22.950Z,101384.16
2023-04-16T09:12:52.089Z,101382.47
2023-04-16T09:15:21.759Z,101374.06
2023-04-16T09:17:52.709Z,101383.22
2023-04-16T09:20:21.662Z,101372.25
2023-04-16T09:22:53.338Z,101377.19
2023-04-16T09:25:22.485Z,101384.53
2023-04-16T09:27:51.966Z,101378.41
2023-04-16T09:30:22.720Z,101389.47
2023-04-16T09:32:52.763Z,101389.47
2023-04-16T09:35:21.508Z,101392.50
2023-04-16T09:38:01.281Z,101399.81
2023-04-16T09:40:31.093Z,101399.31
2023-04-16T09:43:00.676Z,101405.34
2023-04-16T09:45:32.693Z,101404.63
2023-04-16T09:48:06.394Z,101411.13
2023-04-16T09:50:34.145Z,101412.31
2023-04-16T09:53:03.859Z,101404.66
2023-04-16T09:55:31.617Z,101419.31
2023-04-16T09:58:00.934Z,101399.94
2023-04-16T10:00:30.642Z,101403.31
2023-04-16T10:03:07.070Z,101408.84
2023-04-16T10:05:35.603Z,101414.97
2023-04-16T10:08:03.541Z,101417.28
2023-04-16T10:10:31.412Z,101416.09
2023-04-16T10:12:59.116Z,101413.56
2023-04-16T10:15:27.564Z,101418.84
2023-04-16T10:17:55.325Z,101420.25
2023-04-16T10:20:25.277Z,101423.06
2023-04-16T10:22:55.020Z,101424.50
2023-04-16T10:25:23.815Z,101416.09
2023-04-16T10:27:51.908Z,101420.66
2023-04-16T10:30:20.402Z,101427.25
2023-04-16T10:32:48.985Z,101420.31
2023-04-16T10:35:20.094Z,101418.13
2023-04-16T10:37:49.257Z,101421.03
2023-04-16T10:40:27.188Z,101426.78
2023-04-16T10:42:59.191Z,101421.50
2023-04-16T10:45:30.593Z,101420.41
2023-04-16T10:47:58.766Z,101417.19
2023-04-16T10:50:34.794Z,101421.50
2023-04-16T10:53:25.327Z,101416.22
2023-04-16T10:56:15.410Z,101417.88
2023-04-16T10:58:43.318Z,101420.53
2023-04-16T11:01:16.564Z,101421.03
2023-04-16T11:03:48.874Z,101427.03
2023-04-16T11:06:18.240Z,101426.34
2023-04-16T11:08:54.413Z,101424.59
2023-04-16T11:11:23.852Z,101429.38
2023-04-16T11:13:56.727Z,101427.41
2023-04-16T11:16:25.950Z,101421.34
2023-04-16T11:18:55.073Z,101424.56
2023-04-16T11:21:25.271Z,101429.00
2023-04-16T11:23:54.834Z,101429.91
2023-04-16T11:26:27.003Z,101428.75
2023-04-16T11:28:55.929Z,101423.81
2023-04-16T11:31:24.401Z,101422.69
2023-04-16T11:33:52.266Z,101424.28
2023-04-16T11:36:20.134Z,101433.28
2023-04-16T11:38:48.245Z,101429.91
2023-04-16T11:41:22.874Z,101428.88
2023-04-16T11:43:50.735Z,101437.75
2023-04-16T11:46:27.438Z,101434.78
2023-04-16T11:48:56.624Z,101433.28
2023-04-16T11:51:24.383Z,101428.59
2023-04-16T11:53:53.510Z,101430.03
2023-04-16T11:56:30.399Z,101425.88
2023-04-16T11:59:10.856Z,101434.56
2023-04-16T12:01:40.781Z,101435.91
2023-04-16T12:04:09.668Z,101425.88
2023-04-16T12:06:37.570Z,101428.88
2023-04-16T12:09:26.260Z,101431.59
2023-04-16T12:11:55.395Z,101431.84
2023-04-16T12:14:24.172Z,101432.38
2023-04-16T12:16:52.075Z,101441.03
2023-04-16T12:19:19.903Z,101437.41
2023-04-16T12:21:49.327Z,101439.03
2023-04-16T12:24:20.716Z,101442.28
2023-04-16T12:26:52.836Z,101439.19
2023-04-16T12:29:23.314Z,101443.97
2023-04-16T12:31:52.454Z,101439.88
2023-04-16T12:34:21.230Z,101441.63
2023-04-16T12:36:50.452Z,101440.53
2023-04-16T12:39:18.178Z,101442.69
2023-04-16T12:41:46.282Z,101442.22
2023-04-16T12:44:18.250Z,101454.22
2023-04-16T12:46:47.519Z,101450.47
2023-04-16T12:49:15.514Z,101443.47
2023-04-16T12:51:43.228Z,101443.25
2023-04-16T12:54:11.116Z,101448.06
2023-04-16T12:56:38.983Z,101446.84
2023-04-16T12:59:09.531Z,101443.47
2023-04-16T13:01:37.557Z,101438.44
2023-04-16T13:04:07.532Z,101441.19
2023-04-16T13:06:36.932Z,101443.72
2023-04-16T13:09:05.189Z,101438.69
2023-04-16T13:11:33.261Z,101437.72
2023-04-16T13:14:01.003Z,101442.53
2023-04-16T13:16:28.849Z,101437.94
2023-04-16T13:18:56.634Z,101443.00
2023-04-16T13:21:27.193Z,101443.25
2023-04-16T13:23:55.289Z,101437.22
2023-04-16T13:26:23.199Z,101440.91
2023-04-16T13:28:50.966Z,101445.59
2023-04-16T13:31:20.577Z,101435.56
2023-04-16T13:33:48.381Z,101432.97
2023-04-16T13:36:16.133Z,101433.44
2023-04-16T13:38:45.748Z,101425.91
2023-04-16T13:41:13.649Z,101436.22
2023-04-16T13:43:41.437Z,101435.56
2023-04-16T13:46:09.230Z,101433.13
2023-04-16T13:48:37.183Z,101432.16
2023-04-16T13:51:05.430Z,101433.13
2023-04-16T13:53:33.114Z,101427.59
2023-04-16T13:56:03.667Z,101438.50
2023-04-16T13:58:31.624Z,101430.56
2023-04-16T14:00:59.440Z,101429.59
2023-04-16T14:03:27.698Z,101426.44
2023-04-16T14:05:55.540Z,101430.66
2023-04-16T14:08:23.291Z,101427.59
2023-04-16T14:10:51.697Z,101437.38
2023-04-16T14:13:21.525Z,101433.88
2023-04-16T14:15:49.547Z,101433.88
2023-04-16T14:18:17.312Z,101431.75
2023-04-16T14:20:45.061Z,101429.81
2023-04-16T14:23:12.864Z,101437.06
2023-04-16T14:25:40.757Z,101433.94
2023-04-16T14:28:08.980Z,101440.59
2023-04-16T14:30:38.100Z,101437.09
2023-04-16T14:33:07.346Z,101434.59
2023-04-16T14:35:36.098Z,101435.56
2023-04-16T14:38:04.067Z,101429.66
2023-04-16T14:40:31.773Z,101437.75
2023-04-16T14:42:59.481Z,101432.44
2023-04-16T14:45:29.953Z,101437.09
2023-04-16T14:47:59.244Z,101429.69
2023-04-16T14:50:27.054Z,101428.81
2023-04-16T14:52:54.814Z,101424.63
2023-04-16T14:55:22.564Z,101432.53
2023-04-16T14:57:50.368Z,101432.22
2023-04-16T15:00:18.775Z,101440.06
2023-04-16T15:02:48.066Z,101428.09
2023-04-16T15:05:17.539Z,101428.63
2023-04-16T15:07:45.420Z,101419.44
2023-04-16T15:10:13.724Z,101430.94
2023-04-16T15:12:41.573Z,101434.06
2023-04-16T15:15:10.573Z,101437.69
2023-04-16T15:17:38.446Z,101427.63
2023-04-16T15:20:09.008Z,101439.41
2023-04-16T15:22:38.289Z,101435.56
2023-04-16T15:25:07.006Z,101436.81
2023-04-16T15:27:35.018Z,101428.28
2023-04-16T15:30:02.939Z,101428.56
2023-04-16T15:32:32.173Z,101425.19
2023-04-16T15:35:00.508Z,101429.41
2023-04-16T15:37:28.271Z,101422.69
2023-04-16T15:39:57.580Z,101433.06
2023-04-16T15:42:25.978Z,101435.59
2023-04-16T15:44:53.789Z,101425.78
2023-04-16T15:47:21.526Z,101425.25
2023-04-16T15:49:49.242Z,101420.22
2023-04-16T15:52:17.117Z,101420.03
2023-04-16T15:54:44.931Z,101432.31
2023-04-16T15:57:14.043Z,101421.63
2023-04-16T15:59:42.684Z,101429.34
2023-04-16T16:02:11.482Z,101424.63
2023-04-16T16:04:43.577Z,101427.63
2023-04-16T16:07:11.387Z,101437.88
2023-04-16T16:09:39.300Z,101429.53
2023-04-16T16:12:08.333Z,101429.84
2023-04-16T16:14:37.451Z,101428.88
2023-04-16T16:17:05.261Z,101429.03
2023-04-16T16:19:33.729Z,101430.56
2023-04-16T16:22:01.665Z,101427.47
2023-04-16T16:24:29.437Z,101433.66
2023-04-16T16:26:57.177Z,101440.47
2023-04-16T16:29:25.683Z,101432.22
2023-04-16T16:31:54.834Z,101437.53
2023-04-16T16:34:22.923Z,101439.03
2023-04-16T16:36:50.737Z,101430.03
2023-04-16T16:39:18.658Z,101437.88
2023-04-16T16:41:47.488Z,101432.53
2023-04-16T16:44:15.189Z,101432.75
2023-04-16T16:46:43.032Z,101428.25
2023-04-16T16:49:12.348Z,101432.81
2023-04-16T16:51:40.589Z,101425.63
2023-04-16T16:54:08.900Z,101418.72
2023-04-16T16:56:36.733Z,101432.00
2023-04-16T16:59:04.815Z,101437.41
2023-04-16T17:01:32.883Z,101440.06
2023-04-16T17:04:00.922Z,101442.84
2023-04-16T17:06:33.368Z,101443.63
2023-04-16T17:09:01.328Z,101442.06
2023-04-16T17:11:29.332Z,101441.22
2023-04-16T17:13:57.083Z,101441.22
2023-04-16T17:16:24.998Z,101439.06
2023-04-16T17:18:52.848Z,101441.84
2023-04-16T17:21:21.115Z,101436.09
2023-04-16T17:23:50.399Z,101448.19
2023-04-16T17:26:18.241Z,101451.78
2023-04-16T17:28:45.951Z,101451.91
2023-04-16T17:31:14.832Z,101454.97
2023-04-16T17:33:42.552Z,101447.28
2023-04-16T17:36:10.366Z,101446.44
2023-04-16T17:38:38.108Z,101452.22
2023-04-16T17:41:07.335Z,101454.69
2023-04-16T17:43:35.071Z,101460.72
2023-04-16T17:46:03.195Z,101461.34
2023-04-16T17:48:31.122Z,101465.19
2023-04-16T17:50:58.966Z,101472.72
2023-04-16T17:53:26.702Z,101476.56
2023-04-16T17:55:56.674Z,101469.81
2023-04-16T17:58:26.907Z,101469.50
2023-04-16T18:00:54.621Z,101471.31
2023-04-16T18:03:22.454Z,101477.56
2023-04-16T18:05:50.432Z,101475.03
2023-04-16T18:08:18.198Z,101478.91
2023-04-16T18:10:46.000Z,101481.66
2023-04-16T18:13:13.822Z,101483.88
2023-04-16T18:15:42.960Z,101482.75
2023-04-16T18:18:10.944Z,101483.16
2023-04-16T18:20:38.670Z,101483.03
2023-04-16T18:23:06.412Z,101485.19
2023-04-16T18:25:35.241Z,101488.09
2023-04-16T18:28:03.758Z,101483.13
2023-04-16T18:30:31.653Z,101498.81
2023-04-16T18:33:33.626Z,101486.50
2023-04-16T18:35:49.017Z,101500.72
2023-04-16T18:38:16.695Z,101504.34
2023-04-16T18:40:44.514Z,101492.31
2023-04-16T18:43:12.238Z,101504.00
2023-04-16T18:45:40.065Z,101503.16
2023-04-16T18:48:09.325Z,101502.66
2023-04-16T18:50:37.102Z,101512.06
2023-04-16T18:53:04.898Z,101509.78
2023-04-16T18:55:32.771Z,101508.94
2023-04-16T18:58:00.627Z,101507.00
2023-04-16T19:00:28.388Z,101515.47
2023-04-16T19:02:56.286Z,101513.66
2023-04-16T19:05:25.563Z,101515.34
2023-04-16T19:07:53.284Z,101514.22
2023-04-16T19:10:20.978Z,101517.84
2023-04-16T19:12:48.830Z,101525.09
2023-04-16T19:15:16.761Z,101516.16
2023-04-16T19:17:44.510Z,101523.41
2023-04-16T19:20:12.674Z,101525.09
2023-04-16T19:22:41.843Z,101519.06
2023-04-16T19:25:10.689Z,101526.53
2023-04-16T19:27:38.532Z,101523.97
2023-04-16T19:30:07.679Z,101528.44
2023-04-16T19:32:35.444Z,101533.63
2023-04-16T19:35:03.594Z,101530.41
2023-04-16T19:37:31.379Z,101525.56
2023-04-16T19:40:01.903Z,101535.09
2023-04-16T19:42:29.760Z,101536.03
2023-04-16T19:44:57.552Z,101539.78
2023-04-16T19:47:25.727Z,101536.41
2023-04-16T19:49:53.497Z,101533.75
2023-04-16T19:52:21.258Z,101536.63
2023-04-16T19:54:49.001Z,101542.88
2023-04-16T19:57:18.147Z,101540.00
2023-04-16T19:59:45.901Z,101539.28
2023-04-16T20:02:13.875Z,101535.78
2023-04-16T20:04:41.676Z,101539.28
2023-04-16T20:07:09.576Z,101542.16
2023-04-16T20:09:37.383Z,101545.53
2023-04-16T20:12:05.413Z,101548.91
2023-04-16T20:14:34.503Z,101549.38
2023-04-16T20:17:02.772Z,101537.31
2023-04-16T20:19:33.693Z,101547.69
2023-04-16T20:22:01.556Z,101542.38
2023-04-16T20:24:30.969Z,101536.47
2023-04-16T20:26:58.695Z,101543.47
2023-04-16T20:29:26.468Z,101543.56
2023-04-16T20:31:55.632Z,101541.16
2023-04-16T20:34:23.386Z,101542.84
2023-04-16T20:36:51.132Z,101549.00
2023-04-16T20:39:20.372Z,101542.63
2023-04-16T20:41:57.112Z,101540.94
2023-04-16T20:44:26.337Z,101544.88
2023-04-16T20:46:56.987Z,101541.16
2023-04-16T20:49:25.072Z,101546.47
2023-04-16T20:51:52.827Z,101547.53
2023-04-16T20:54:20.626Z,101545.00
2023-04-16T20:56:50.258Z,101536.09
2023-04-16T20:59:17.949Z,101534.41
2023-04-16T21:01:45.804Z,101538.88
2023-04-16T21:04:16.299Z,101537.19
2023-04-16T21:06:44.043Z,101540.81
2023-04-16T21:09:12.050Z,101548.88
2023-04-16T21:11:40.009Z,101534.38
2023-04-16T21:14:07.876Z,101535.97
2023-04-16T21:16:35.828Z,101540.19
2023-04-16T21:19:03.773Z,101543.78
2023-04-16T21:21:33.113Z,101547.00
2023-04-16T21:24:00.919Z,101540.41
2023-04-16T21:26:28.738Z,101542.94
2023-04-16T21:28:56.587Z,101544.53
2023-04-16T21:31:24.466Z,101541.25
2023-04-16T21:33:52.161Z,101541.38
2023-04-16T21:36:19.840Z,101539.56
2023-04-16T21:38:48.889Z,101545.94
2023-04-16T21:41:16.688Z,101542.34
2023-04-16T21:43:44.450Z,101540.88
2023-04-16T21:46:12.217Z,101543.66
2023-04-16T21:48:39.971Z,101547.16
2023-04-16T21:51:08.132Z,101536.91
2023-04-16T21:53:36.826Z,101537.13
2023-04-16T21:56:06.467Z,101537.97
2023-04-16T21:58:34.283Z,101538.81
2023-04-16T22:01:02.052Z,101539.91
2023-04-16T22:03:31.126Z,101542.66
2023-04-16T22:06:00.680Z,101539.91
2023-04-16T22:08:28.798Z,101546.88
2023-04-16T22:11:00.214Z,101539.06
2023-04-16T22:13:32.170Z,101543.72
2023-04-16T22:16:02.218Z,101541.56
2023-04-16T22:18:32.906Z,101542.28
2023-04-16T22:21:01.388Z,101543.72
2023-04-16T22:23:29.155Z,101543.97
2023-04-16T22:25:57.247Z,101536.75
2023-04-16T22:28:24.988Z,101552.19
2023-04-16T22:30:54.028Z,101539.06
2023-04-16T22:33:21.801Z,101539.91
2023-04-16T22:35:49.498Z,101546.25
2023-04-16T22:38:17.461Z,101543.72
2023-04-16T22:40:48.183Z,101547.59
2023-04-16T22:43:16.049Z,101545.41
2023-04-16T22:45:46.121Z,101553.34
2023-04-16T22:48:15.471Z,101544.34
2023-04-16T22:50:48.334Z,101548.78
2023-04-16T22:53:16.194Z,101541.59
2023-04-16T22:55:43.952Z,101545.94
2023-04-16T22:58:11.902Z,101537.25
2023-04-16T23:00:39.764Z,101546.16
2023-04-16T23:03:07.739Z,101540.13
2023-04-16T23:05:36.877Z,101545.41
2023-04-16T23:08:04.663Z,101540.97
2023-04-16T23:10:32.436Z,101543.13
2023-04-16T23:13:00.187Z,101545.41
2023-04-16T23:15:28.043Z,101536.53
2023-04-16T23:17:55.927Z,101536.38
2023-04-16T23:20:23.797Z,101538.06
2023-04-16T23:22:52.942Z,101537.97
2023-04-16T23:25:22.346Z,101545.91
2023-04-16T23:27:50.134Z,101534.69
2023-04-16T23:30:18.142Z,101535.75
2023-04-16T23:32:45.922Z,101533.84
2023-04-16T23:35:20.196Z,101529.84
2023-04-16T23:37:47.960Z,101539.84
2023-04-16T23:40:17.266Z,101534.28
2023-04-16T23:42:45.012Z,101537.69
2023-04-16T23:45:12.907Z,101537.91
2023-04-16T23:47:40.658Z,101538.03
2023-04-16T23:50:08.940Z,101529.25
2023-04-16T23:52:36.718Z,101548.16
2023-04-16T23:55:04.750Z,101536.59
2023-04-16T23:57:33.800Z,101534.81
